Date,TemperatureHighF,TemperatureAvgF,TemperatureLowF,DewpointHighF,DewpointAvgF,DewpointLowF,HumidityHigh,HumidityAvg,HumidityLow,PressureMaxIn,PressureMinIn,WindSpeedMaxMPH,WindSpeedAvgMPH,GustSpeedMaxMPH,PrecipitationSumIn
2013-1-1,49,45,40,41,34,20,88,65,37,30.10,29.90,14,1,16,0.15
2013-1-2,45,41,37,39,30,18,88,66,45,30.21,29.96,15,1,15,0.01
2013-1-3,43,36,30,29,24,18,81,65,39,30.27,30.17,8,1,8,0.00
2013-1-4,46,37,29,25,21,19,83,55,37,30.33,30.21,13,2,19,0.00
2013-1-5,51,40,31,33,24,17,72,53,29,30.42,30.23,12,1,13,0.00
2013-1-6,52,43,34,36,32,29,89,68,45,30.23,30.06,19,1,19,0.02
2013-1-7,49,40,30,30,27,23,86,60,40,30.47,30.18,18,1,18,0.00
2013-1-8,54,38,27,38,31,24,89,77,49,30.49,30.36,15,1,15,0.00
2013-1-9,59,44,32,47,38,30,90,81,62,30.45,30.35,7,0,9,0.00
2013-1-10,58,47,38,45,36,28,90,69,33,30.58,30.42,5,0,6,0.00
2013-1-11,46,43,40,40,37,32,91,81,62,30.45,30.16,13,1,13,0.01
2013-1-12,70,52,41,58,48,38,91,84,62,30.17,30.09,5,0,5,0.00
2013-1-13,71,60,53,59,54,50,92,82,61,30.11,29.98,17,1,18,0.00
2013-1-14,60,55,48,58,52,44,92,89,84,30.26,29.99,17,1,17,0.73
2013-1-15,48,42,38,44,39,36,90,89,88,30.31,30.13,13,3,13,1.97
2013-1-16,47,42,38,44,39,36,91,89,87,30.15,29.95,7,1,8,0.45
2013-1-17,47,40,33,44,37,31,91,89,84,30.18,30.00,11,1,11,1.56
2013-1-18,44,36,30,33,26,16,91,69,36,30.55,30.18,17,1,20,0.18
2013-1-19,52,38,27,32,28,24,90,69,36,30.49,30.11,13,1,14,0.01
2013-1-20,56,43,32,38,29,20,90,63,29,30.10,29.98,20,2,26,0.00
2013-1-21,56,42,31,31,22,5,83,50,25,30.09,29.86,29,3,32,0.00
2013-1-22,34,27,22,9,2,-3,43,34,24,30.32,30.00,20,3,20,0.00
2013-1-23,37,28,19,19,6,-2,58,40,22,30.39,30.10,17,2,17,0.00
2013-1-24,33,28,21,18,6,0,55,39,26,30.57,30.08,27,4,29,0.00
2013-1-25,27,23,20,22,13,4,83,67,46,30.55,30.10,16,2,16,0.00
2013-1-26,44,33,26,27,23,18,89,69,46,30.45,30.10,13,1,13,0.06
2013-1-27,36,31,25,28,22,18,81,70,61,30.64,30.45,11,1,11,0.00
2013-1-28,58,43,34,43,35,26,88,76,51,30.49,30.18,12,1,13,0.17
2013-1-29,73,52,38,51,42,35,90,72,39,30.20,29.99,16,1,16,0.00
2013-1-30,68,61,52,60,55,-100,91,82,72,29.99,29.32,29,5,31,1.69
2013-1-31,53,41,31,47,25,16,84,54,36,29.97,29.35,33,5,33,0.06
2013-2-1,36,29,22,30,12,4,79,49,35,30.43,29.82,27,3,28,0.00
2013-2-2,36,29,19,26,15,8,83,58,37,30.42,30.03,18,2,20,0.00
2013-2-3,44,36,30,28,23,18,85,60,45,30.03,29.86,22,2,24,0.00
2013-2-4,41,33,27,27,19,13,79,57,42,30.16,29.97,19,2,19,0.00
2013-2-5,55,43,32,37,31,26,82,64,42,29.97,29.88,22,2,22,0.00
2013-2-6,55,44,33,35,29,22,88,59,30,30.34,29.95,12,1,13,0.00
2013-2-7,41,37,33,31,29,26,87,71,63,30.42,30.14,12,2,12,0.14
2013-2-8,55,40,34,41,32,24,89,74,45,30.14,29.83,24,2,26,0.37
2013-2-9,50,39,30,27,20,12,81,48,23,30.39,30.05,26,2,26,0.00
2013-2-10,48,37,27,36,25,15,86,64,33,30.52,30.24,13,2,13,0.03
2013-2-11,58,46,38,49,39,25,90,78,34,30.23,29.89,22,1,22,0.08
2013-2-12,58,49,43,37,25,19,76,41,23,30.06,29.90,23,2,24,0.00
2013-2-13,48,43,36,40,37,31,90,81,64,29.95,29.64,16,2,16,0.08
2013-2-14,51,41,31,34,30,24,89,67,37,30.08,29.84,10,1,10,0.00
2013-2-15,60,43,30,39,31,27,90,67,33,30.11,29.91,21,2,21,0.00
2013-2-16,42,37,29,30,22,12,67,54,41,30.01,29.87,19,2,19,0.00
2013-2-17,34,28,23,18,8,2,67,44,28,30.29,29.94,24,3,24,0.00
2013-2-18,52,36,20,28,19,12,86,53,25,30.41,30.17,18,2,18,0.00
2013-2-19,52,44,37,40,27,12,78,55,26,30.18,29.80,24,4,27,0.01
2013-2-20,47,38,32,16,12,7,47,34,21,30.19,29.97,18,3,18,0.00
2013-2-21,51,39,28,27,16,12,64,41,23,30.30,30.13,14,2,15,0.00
2013-2-22,40,36,33,30,25,17,77,63,40,30.36,30.17,13,3,14,0.00
2013-2-23,49,41,35,41,35,28,88,79,65,30.18,29.83,9,1,9,0.00
2013-2-24,57,46,37,37,28,18,90,56,24,30.08,29.81,16,2,16,0.00
2013-2-25,41,35,30,28,23,20,79,61,44,30.26,30.08,9,1,9,0.00
2013-2-26,41,37,30,38,33,23,90,86,74,30.22,29.64,20,3,21,1.04
2013-2-27,53,44,36,41,34,30,91,69,45,29.77,29.61,19,2,22,0.00
2013-2-28,47,41,38,32,26,22,71,56,42,29.85,29.69,21,3,23,0.00
2013-3-1,42,39,34,30,26,21,78,60,49,29.94,29.83,14,1,15,0.00
2013-3-2,41,36,33,24,21,16,58,53,46,29.95,29.86,16,2,16,0.00
2013-3-3,40,33,29,23,17,11,61,52,41,30.01,29.91,20,3,20,0.00
2013-3-4,50,37,28,24,14,6,68,42,17,30.13,30.00,16,2,16,0.00
2013-3-5,48,40,34,36,30,23,88,68,41,30.09,29.65,16,3,17,0.73
2013-3-6,46,38,34,32,29,27,89,70,52,30.09,29.62,25,3,31,0.20
2013-3-7,47,41,37,30,26,23,64,57,45,30.27,30.08,20,2,21,0.00
2013-3-8,53,44,38,26,24,21,62,47,31,30.34,30.20,21,3,21,0.00
2013-3-9,60,45,32,35,28,24,79,55,27,30.38,30.25,10,1,10,0.00
2013-3-10,61,46,32,39,33,28,87,64,32,30.34,30.19,11,2,15,0.00
2013-3-11,60,48,38,50,40,28,85,72,44,30.21,29.88,16,2,16,0.00
2013-3-12,59,53,40,53,43,30,91,70,41,30.01,29.72,19,3,19,0.65
2013-3-13,48,41,34,33,26,16,84,56,34,30.18,29.98,28,3,28,0.00
2013-3-14,49,38,30,23,17,12,61,43,24,30.25,30.14,24,2,24,0.00
2013-3-15,62,46,30,36,27,19,78,51,31,30.19,29.85,19,3,21,0.00
2013-3-16,78,55,40,52,42,34,87,66,28,29.86,29.56,25,2,25,0.02
2013-3-17,50,43,37,46,38,34,89,85,78,30.24,29.83,13,4,13,0.14
2013-3-18,37,35,34,34,32,31,89,88,87,30.26,29.92,15,4,16,0.19
2013-3-19,61,47,35,42,23,-6,90,50,9,30.05,29.82,32,4,32,0.00
2013-3-20,55,45,35,24,12,3,50,28,15,30.09,29.79,25,3,25,0.00
2013-3-21,42,34,28,26,15,9,60,45,30,30.02,29.79,12,3,23,0.00
2013-3-22,50,36,25,26,15,10,71,43,21,30.09,29.96,16,2,17,0.00
2013-3-23,56,42,30,35,25,16,79,55,26,30.08,29.91,12,1,12,0.00
2013-3-24,41,35,33,31,29,22,88,77,48,29.97,29.63,16,3,16,0.15
2013-3-25,46,37,32,34,28,22,89,71,42,29.79,29.57,23,2,27,0.65
2013-3-26,47,41,36,30,26,23,74,55,41,30.14,29.79,18,2,21,0.01
2013-3-27,48,39,31,28,25,21,80,58,40,30.25,30.13,20,2,20,0.00
2013-3-28,53,43,33,29,25,21,79,51,31,30.30,30.20,21,2,22,0.00
2013-3-29,60,44,32,32,26,18,84,55,23,30.35,30.17,16,1,16,0.00
2013-3-30,62,47,34,38,31,23,86,59,23,30.28,30.08,13,2,13,0.00
2013-3-31,62,49,43,52,44,35,90,82,66,30.09,29.77,10,0,10,0.36
2013-4-1,65,51,40,46,39,28,91,66,39,30.03,29.83,20,2,23,0.00
2013-4-2,54,44,32,33,22,9,87,47,18,30.18,30.03,19,1,20,0.00
2013-4-3,57,44,31,28,20,9,80,42,15,30.36,30.18,16,2,17,0.00
2013-4-4,44,38,34,32,23,15,89,58,34,30.44,30.04,13,2,13,0.46
2013-4-5,63,48,35,44,35,28,90,65,28,30.05,29.90,13,1,13,0.33
2013-4-6,60,48,36,38,32,21,88,58,23,30.30,30.04,11,2,12,0.00
2013-4-7,70,55,39,43,38,32,83,56,33,30.26,30.04,24,4,24,0.00
2013-4-8,78,62,44,51,45,40,88,58,27,30.13,29.99,24,3,24,0.00
2013-4-9,84,68,51,55,49,46,87,56,28,30.14,30.00,18,2,20,0.00
2013-4-10,88,72,55,58,52,48,87,55,27,30.05,29.86,21,2,21,0.00
2013-4-11,81,70,56,58,54,51,88,61,36,29.91,29.70,23,4,24,0.00
2013-4-12,79,68,61,63,53,36,89,63,26,29.76,29.58,20,3,23,1.34
2013-4-13,73,62,51,42,35,26,61,39,19,30.00,29.76,18,2,18,0.00
2013-4-14,77,62,46,50,40,31,85,49,20,30.10,29.98,18,2,18,0.00
2013-4-15,66,59,54,53,51,43,87,76,45,30.25,30.02,14,4,14,0.21
2013-4-16,74,63,57,60,56,52,90,78,55,30.31,30.15,13,2,13,0.00
2013-4-17,77,67,58,64,58,55,90,75,53,30.20,30.09,6,0,6,0.00
2013-4-18,76,69,61,60,58,53,89,70,46,30.16,29.96,19,4,19,0.00
2013-4-19,74,67,54,64,58,40,83,73,57,29.97,29.63,25,5,30,0.81
2013-4-20,62,53,44,40,31,23,77,45,24,30.31,29.84,21,2,21,0.00
2013-4-21,57,49,40,38,34,28,78,57,38,30.55,30.31,14,4,14,0.00
2013-4-22,60,50,37,39,33,21,86,55,26,30.52,30.31,19,4,19,0.00
2013-4-23,65,56,48,50,43,37,81,63,48,30.34,30.10,14,3,14,0.01
2013-4-24,74,62,48,55,50,46,90,68,45,30.12,29.90,25,4,25,0.00
2013-4-25,67,59,48,46,33,14,75,41,14,30.31,30.03,13,2,18,0.00
2013-4-26,67,56,42,44,36,28,80,50,26,30.46,30.31,11,1,11,0.00
2013-4-27,68,59,51,51,45,40,76,61,39,30.38,30.25,13,1,13,0.00
2013-4-28,59,55,53,52,50,47,87,83,73,30.26,30.07,18,3,18,0.40
2013-4-29,64,57,52,56,52,48,90,84,69,30.11,29.98,10,1,10,0.16
2013-4-30,68,60,55,57,54,52,91,81,64,30.23,30.04,14,3,15,0.05
2013-5-1,70,63,56,54,50,43,87,65,40,30.36,30.22,15,5,16,0.00
2013-5-2,69,60,53,51,46,38,77,60,46,30.37,30.27,11,3,13,0.00
2013-5-3,66,56,48,52,47,42,89,72,53,30.34,30.21,15,3,17,0.00
2013-5-4,61,54,47,49,45,40,82,72,57,30.27,30.14,17,4,17,0.00
2013-5-5,58,53,47,50,44,36,85,72,62,30.17,30.04,19,6,19,0.02
2013-5-6,57,55,52,55,51,49,91,88,79,30.06,29.88,20,5,20,1.65
2013-5-7,63,56,51,57,53,48,91,89,76,29.95,29.86,24,1,24,0.79
2013-5-8,59,54,50,54,51,47,92,90,83,30.01,29.94,5,1,5,0.33
2013-5-9,78,63,49,61,52,47,92,72,37,30.05,29.97,9,1,13,0.00
2013-5-10,81,66,54,64,56,52,91,72,40,30.05,29.90,26,2,26,0.02
2013-5-11,76,66,61,64,60,58,91,81,61,29.93,29.74,15,0,16,0.37
2013-5-12,64,58,46,58,42,29,90,58,29,30.07,29.80,21,2,21,0.00
2013-5-13,63,52,41,41,35,26,89,58,28,30.21,30.06,16,1,17,0.00
2013-5-14,68,55,39,47,40,33,90,62,31,30.26,30.02,14,2,14,0.00
2013-5-15,90,69,51,62,54,45,88,63,25,30.03,29.82,17,2,17,0.00
2013-5-16,83,73,62,62,57,52,86,59,37,29.97,29.86,14,1,14,0.04
2013-5-17,80,69,60,66,60,55,90,76,45,30.09,29.97,11,1,11,0.01
2013-5-18,68,66,63,63,61,58,90,85,78,30.18,30.08,12,3,12,0.12
2013-5-19,71,67,63,67,63,60,90,88,83,30.15,30.04,10,2,10,0.49
2013-5-20,76,69,66,69,65,63,90,86,69,30.11,29.99,8,1,8,0.01
2013-5-21,83,72,64,71,65,62,92,81,56,30.03,29.89,6,1,7,0.00
2013-5-22,82,72,66,69,65,62,90,80,58,29.97,29.85,21,2,21,0.63
2013-5-23,76,68,63,67,63,59,90,84,70,29.93,29.77,13,2,13,0.16
2013-5-24,64,60,51,61,47,33,91,64,38,30.20,29.81,19,2,19,0.01
2013-5-25,71,58,47,42,34,25,73,42,20,30.28,30.15,15,2,16,0.00
2013-5-26,74,61,50,49,42,33,81,52,25,30.26,30.15,12,1,12,0.00
2013-5-27,74,62,50,59,50,40,87,65,40,30.30,30.14,8,1,9,0.00
2013-5-28,82,70,57,70,59,53,87,70,49,30.21,30.08,13,2,13,0.04
2013-5-29,85,74,63,68,62,58,91,68,43,30.18,30.10,12,2,13,0.00
2013-5-30,84,73,61,66,62,58,91,69,44,30.23,30.14,14,1,14,0.00
2013-5-31,84,74,62,67,62,59,91,71,48,30.19,30.06,16,2,16,0.00
2013-6-1,86,75,64,68,63,58,90,68,44,30.08,29.96,19,3,19,0.00
2013-6-2,77,71,68,68,64,61,90,79,70,29.98,29.89,16,1,16,1.23
2013-6-3,81,72,66,68,64,59,91,78,53,29.97,29.84,13,0,14,0.29
2013-6-4,77,69,62,63,60,55,89,74,51,30.11,29.96,10,1,10,0.00
2013-6-5,74,68,61,64,60,53,89,76,62,30.16,30.03,10,1,11,0.00
2013-6-6,68,65,62,64,61,58,91,89,78,30.03,29.82,10,1,11,2.42
2013-6-7,75,70,65,70,66,62,91,88,82,29.83,29.61,9,1,9,0.15
2013-6-8,79,70,62,66,62,58,91,78,52,30.09,29.81,9,1,10,0.12
2013-6-9,84,74,66,73,66,62,91,77,51,30.15,30.03,17,1,17,0.04
2013-6-10,80,72,67,70,67,62,91,86,67,30.07,29.83,25,2,29,1.18
2013-6-11,82,73,65,67,64,61,91,74,50,29.93,29.86,15,1,15,0.11
2013-6-12,89,77,66,76,68,62,89,75,50,29.95,29.82,11,0,12,0.00
2013-6-13,92,78,71,76,71,67,94,80,50,29.83,29.56,24,2,24,0.00
2013-6-14,78,70,64,64,59,55,91,70,54,30.01,29.75,15,6,15,0.00
2013-6-15,81,71,59,66,62,58,95,77,47,30.12,30.01,10,2,10,0.00
2013-6-16,84,74,63,74,67,62,96,80,59,30.06,29.95,13,1,13,0.04
2013-6-17,81,74,69,74,70,68,97,88,69,30.01,29.90,9,1,11,0.07
2013-6-18,76,72,66,73,69,64,96,92,82,29.94,29.79,11,1,11,0.40
2013-6-19,79,71,63,70,66,62,97,86,65,30.13,29.90,13,2,13,0.00
2013-6-20,77,70,66,70,66,64,96,87,66,30.26,30.13,11,2,12,0.00
2013-6-21,82,72,62,69,63,57,95,75,57,30.29,30.19,11,2,11,0.00
2013-6-22,84,71,61,73,66,60,97,86,60,30.26,30.11,14,2,14,0.00
2013-6-23,86,76,69,75,70,67,96,82,60,30.19,30.08,9,1,13,0.00
2013-6-24,86,78,70,77,72,68,94,82,55,30.17,30.05,12,1,12,0.00
2013-6-25,88,78,69,77,72,68,96,82,62,30.08,29.95,9,1,9,0.00
2013-6-26,88,74,68,76,69,66,94,85,58,29.98,29.85,25,1,25,0.64
2013-6-27,83,75,68,75,70,66,94,84,69,29.89,29.68,12,1,12,0.01
2013-6-28,88,79,70,73,70,66,93,73,56,29.72,29.50,18,2,19,0.00
2013-6-29,83,75,67,72,67,63,92,76,56,29.70,29.56,13,1,13,0.00
2013-6-30,84,76,68,76,70,66,94,81,66,29.84,29.69,14,2,16,0.00
2013-7-1,81,75,70,72,70,68,94,84,69,29.96,29.81,14,3,14,0.09
2013-7-2,76,73,70,72,70,68,93,89,84,30.16,29.95,12,2,13,1.05
2013-7-3,77,74,72,74,72,70,97,93,86,30.23,30.11,13,2,14,0.55
2013-7-4,84,76,72,76,73,71,98,89,68,30.25,30.16,14,3,14,0.01
2013-7-5,84,77,71,76,73,70,99,89,70,30.25,30.15,18,2,18,0.00
2013-7-6,85,77,71,74,72,70,98,85,63,30.23,30.09,13,1,16,0.00
2013-7-7,84,75,71,75,72,70,98,90,73,30.15,30.05,14,2,16,0.07
2013-7-8,87,77,68,75,71,68,99,83,58,30.16,30.07,7,0,7,0.48
2013-7-9,88,79,72,77,73,70,97,84,57,30.13,30.02,7,1,10,0.00
2013-7-10,85,77,71,78,73,70,97,90,74,30.06,29.92,11,1,11,0.30
2013-7-11,86,75,71,76,72,70,98,91,65,29.94,29.86,11,1,11,0.14
2013-7-12,77,71,68,70,68,66,98,90,78,30.05,29.88,12,2,13,0.17
2013-7-13,80,73,69,74,70,66,98,92,81,30.19,30.04,16,3,16,0.58
2013-7-14,85,77,72,75,72,70,98,86,66,30.32,30.19,13,4,13,0.00
2013-7-15,87,78,71,78,72,69,99,84,57,30.33,30.23,7,0,7,0.00
2013-7-16,92,80,70,79,73,70,99,82,56,30.27,30.17,13,1,13,0.00
2013-7-17,92,80,74,81,75,71,97,84,63,30.24,30.13,12,1,12,0.07
2013-7-18,92,82,73,80,76,72,97,83,61,30.14,30.02,6,1,7,0.00
2013-7-19,92,82,74,82,75,70,98,82,60,30.06,29.93,13,1,15,0.00
2013-7-20,91,80,75,79,74,71,94,82,61,29.96,29.86,14,1,14,0.00
2013-7-21,90,78,71,79,73,70,97,87,65,29.98,29.90,18,0,20,1.34
2013-7-22,87,79,73,77,74,72,98,84,66,29.93,29.78,9,2,15,0.00
2013-7-23,89,79,72,77,73,70,96,81,60,29.79,29.69,12,1,12,0.00
2013-7-24,90,79,71,74,71,69,97,79,55,29.89,29.71,16,1,16,0.57
2013-7-25,80,73,67,70,67,61,98,83,54,30.05,29.87,13,1,13,0.15
2013-7-26,81,74,67,71,68,64,96,82,69,30.11,30.01,11,1,11,0.00
2013-7-27,75,71,70,71,69,68,97,93,83,30.04,29.92,11,1,11,0.22
2013-7-28,82,74,68,74,70,67,99,87,64,29.99,29.89,14,1,14,0.00
2013-7-29,81,72,64,70,64,60,99,79,54,30.19,29.99,7,1,10,0.00
2013-7-30,82,72,62,70,65,59,97,80,56,30.25,30.14,7,1,7,0.00
2013-7-31,76,70,67,72,68,66,99,93,79,30.15,30.00,6,0,6,0.02
2013-8-1,85,73,66,78,70,66,100,89,69,30.00,29.82,11,1,11,0.07
2013-8-2,84,74,66,72,68,64,98,82,54,30.02,29.91,11,1,11,0.00
2013-8-3,85,74,66,74,68,64,94,83,57,30.01,29.91,10,0,10,0.00
2013-8-4,84,75,67,70,66,61,94,76,50,30.05,29.91,15,1,15,0.00
2013-8-5,78,71,62,68,64,60,93,79,61,30.11,30.00,10,2,11,0.00
2013-8-6,82,74,68,72,69,65,93,84,69,30.03,29.96,14,2,14,0.00
2013-8-7,80,74,70,74,71,68,97,91,80,30.07,30.01,14,1,14,0.09
2013-8-8,81,75,71,76,73,70,98,92,80,30.04,29.98,12,1,13,0.05
2013-8-9,88,79,72,79,74,71,98,86,66,29.99,29.92,15,1,15,0.02
2013-8-10,90,79,72,78,74,71,97,84,61,30.06,29.98,9,1,9,0.00
2013-8-11,87,77,72,78,73,72,98,90,64,30.10,30.00,11,2,14,1.15
2013-8-12,88,78,70,78,72,70,99,86,61,30.04,29.93,8,1,8,0.16
2013-8-13,81,74,70,76,72,67,96,91,78,29.93,29.78,13,1,13,0.11
2013-8-14,77,70,64,67,61,55,91,74,52,30.10,29.85,13,1,13,0.00
2013-8-15,77,68,56,65,59,54,96,74,56,30.17,30.09,9,1,9,0.00
2013-8-16,73,65,56,64,59,55,97,84,65,30.20,30.12,9,1,9,0.00
2013-8-17,70,63,58,63,61,57,97,91,74,30.24,30.18,13,1,13,0.48
2013-8-18,72,66,64,70,65,63,98,95,85,30.23,30.15,16,2,17,0.93
2013-8-19,75,69,65,70,67,64,98,94,82,30.21,30.08,10,1,10,0.21
2013-8-20,81,73,67,75,70,66,99,90,72,30.18,30.10,6,1,6,0.00
2013-8-21,80,74,69,75,72,68,98,92,79,30.21,30.08,7,0,7,0.02
2013-8-22,86,75,66,76,70,65,98,87,64,30.14,29.98,11,0,11,0.12
2013-8-23,83,72,63,75,69,61,97,88,65,30.13,29.94,18,1,19,0.00
2013-8-24,81,70,61,67,63,59,98,82,51,30.32,30.13,13,1,13,0.00
2013-8-25,80,68,60,68,63,59,97,84,55,30.41,30.29,9,1,9,0.00
2013-8-26,84,70,59,70,64,58,98,83,54,30.33,30.08,6,1,6,0.00
2013-8-27,86,74,65,76,70,64,97,87,65,30.08,29.94,13,0,13,0.00
2013-8-28,81,74,70,77,72,69,97,94,86,29.99,29.83,6,0,6,0.17
2013-8-29,85,78,70,78,73,69,98,86,72,30.02,29.83,15,2,16,0.01
2013-8-30,84,75,69,73,70,68,97,87,69,30.07,29.91,11,1,11,0.00
2013-8-31,85,74,68,77,70,66,96,88,69,29.94,29.80,20,1,20,1.82
2013-9-1,84,75,67,76,71,65,97,89,73,29.88,29.77,10,1,10,0.04
2013-9-2,87,76,68,76,71,67,96,85,62,29.87,29.76,9,1,9,0.00
2013-9-3,88,76,67,74,69,62,95,81,59,29.97,29.78,5,1,11,0.00
2013-9-4,81,70,60,71,64,58,95,81,59,30.11,29.96,9,1,9,0.00
2013-9-5,85,72,61,68,64,59,95,77,50,30.11,30.03,12,1,12,0.00
2013-9-6,77,68,61,66,61,58,94,78,58,30.23,30.11,13,1,13,0.00
2013-9-7,78,68,58,69,63,57,96,86,68,30.16,29.96,12,1,12,0.00
2013-9-8,87,72,63,73,67,60,96,85,60,29.98,29.90,9,0,9,0.00
2013-9-9,79,72,68,70,68,64,95,86,72,30.18,29.98,14,1,14,0.00
2013-9-10,88,76,67,78,71,65,96,86,66,30.22,30.12,7,1,7,0.00
2013-9-11,88,77,69,76,72,68,96,84,61,30.18,30.04,9,1,10,0.00
2013-9-12,88,79,70,76,72,67,95,81,64,30.04,29.79,10,1,10,0.00
2013-9-13,79,71,61,68,60,52,90,69,45,29.94,29.76,14,1,14,0.00
2013-9-14,73,62,53,60,54,50,93,76,51,30.16,29.93,10,1,11,0.00
2013-9-15,76,63,53,65,58,51,96,83,61,30.26,30.11,7,1,13,0.00
2013-9-16,76,66,60,69,62,57,95,86,72,30.24,30.09,7,0,7,0.01
2013-9-17,71,61,53,63,56,51,94,83,59,30.38,30.23,16,2,16,0.00
2013-9-18,70,59,50,60,54,48,94,86,68,30.35,30.19,7,1,7,0.00
2013-9-19,73,65,61,66,62,58,91,87,79,30.20,30.08,4,1,5,0.00
2013-9-20,69,66,63,66,64,60,95,92,89,30.09,29.95,7,0,7,0.22
2013-9-21,70,66,61,68,64,60,96,94,92,29.96,29.70,16,2,16,1.03
2013-9-22,75,64,56,65,59,55,97,84,57,29.94,29.76,11,1,11,0.00
2013-9-23,70,61,57,61,56,52,95,85,69,30.10,29.93,9,1,9,0.00
2013-9-24,73,62,55,64,58,53,95,86,71,30.12,29.94,6,1,7,0.00
2013-9-25,71,63,56,65,60,55,96,90,81,29.97,29.89,7,1,7,0.03
2013-9-26,74,65,58,65,60,53,96,83,54,30.07,29.91,12,1,12,0.00
2013-9-27,74,62,53,63,57,52,97,84,58,30.22,30.07,11,1,11,0.00
2013-9-28,70,62,54,62,57,53,94,84,64,30.29,30.20,15,3,15,0.00
2013-9-29,72,61,53,60,55,52,96,82,59,30.22,30.06,5,1,8,0.00
2013-9-30,73,62,53,63,57,52,96,86,62,30.11,29.98,6,1,6,0.00
2013-10-1,79,66,57,67,61,55,97,86,59,30.12,30.02,9,0,9,0.00
2013-10-2,82,68,57,69,63,55,96,84,59,30.14,30.03,8,0,8,0.00
2013-10-3,83,69,61,72,64,59,96,86,61,30.13,30.04,7,0,7,0.00
2013-10-4,85,70,61,71,65,60,97,85,56,30.13,30.04,6,0,9,0.00
2013-10-5,85,74,63,74,68,62,96,81,58,30.12,30.01,9,0,9,0.00
2013-10-6,81,71,62,70,66,61,97,85,62,30.05,29.89,15,2,15,0.00
2013-10-7,72,67,55,69,62,50,94,86,67,30.08,29.76,18,2,18,1.19
2013-10-8,68,61,51,55,52,49,93,72,54,30.27,30.06,22,4,22,0.00
2013-10-9,65,57,52,56,52,49,93,82,64,30.28,30.17,15,2,17,0.00
2013-10-10,68,59,52,62,55,50,94,88,78,30.17,29.98,10,2,18,0.20
2013-10-11,76,67,60,65,61,57,89,82,68,29.99,29.91,14,2,14,0.00
2013-10-12,67,63,61,65,61,58,95,92,86,30.13,29.97,10,1,10,0.12
2013-10-13,65,62,60,63,61,58,95,94,90,30.27,30.12,11,2,11,0.15
2013-10-14,70,62,56,64,59,55,95,91,77,30.30,30.19,12,2,12,0.06
2013-10-15,71,60,52,61,56,52,97,88,61,30.25,30.09,11,0,11,0.00
2013-10-16,70,63,57,64,59,54,95,88,76,30.10,29.94,8,1,9,0.00
2013-10-17,68,64,61,64,62,56,96,91,83,29.94,29.79,14,1,15,0.01
2013-10-18,68,58,51,57,50,46,95,76,52,30.05,29.89,13,1,14,0.00
2013-10-19,60,55,50,58,53,48,96,93,87,30.00,29.81,6,0,6,0.01
2013-10-20,62,53,45,50,44,40,95,73,46,30.14,29.94,7,1,12,0.00
2013-10-21,65,53,41,55,48,40,96,85,63,30.18,29.98,15,2,15,0.00
2013-10-22,69,58,51,56,52,50,96,83,56,29.98,29.79,19,1,20,0.00
2013-10-23,60,52,44,54,45,35,95,79,56,30.02,29.70,23,2,23,0.45
2013-10-24,53,46,39,41,36,34,92,71,55,30.21,30.01,23,2,23,0.00
2013-10-25,53,43,36,38,34,31,95,73,48,30.38,30.21,15,1,17,0.00
2013-10-26,56,46,32,40,35,30,95,68,45,30.38,30.02,19,3,19,0.00
2013-10-27,65,53,43,50,44,38,94,74,46,30.13,30.02,12,1,12,0.00
2013-10-28,67,53,42,55,49,41,96,85,57,30.27,30.13,9,0,9,0.00
2013-10-29,68,59,53,57,54,50,94,83,64,30.37,30.24,10,1,10,0.00
2013-10-30,72,60,54,64,57,51,95,88,74,30.29,30.13,5,1,6,0.06
2013-10-31,70,63,57,61,59,56,96,86,71,30.17,29.80,21,2,21,0.00
2013-11-1,74,67,56,65,62,55,96,82,65,29.80,29.60,26,3,26,0.05
2013-11-2,68,56,48,54,45,-100,96,71,40,29.96,29.68,18,-3,24,0.01
2013-11-3,61,51,41,44,40,38,90,69,47,30.42,29.96,20,1,20,0.00
2013-11-4,52,43,36,38,35,31,95,72,49,30.61,30.41,15,2,15,0.00
2013-11-5,54,45,37,45,37,30,85,72,58,30.64,30.48,6,1,6,0.00
2013-11-6,66,54,48,57,50,44,95,86,67,30.48,30.11,6,1,7,0.00
2013-11-7,63,52,44,56,46,31,97,80,55,30.16,29.96,21,1,23,0.01
2013-11-8,53,44,36,37,33,29,93,67,42,30.36,30.16,19,1,19,0.00
2013-11-9,55,44,32,39,34,30,94,71,44,30.40,30.14,16,2,16,0.00
2013-11-10,67,52,39,47,37,30,94,60,29,30.29,30.05,22,2,25,0.00
2013-11-11,59,47,36,40,35,30,93,66,36,30.36,30.10,14,1,15,0.00
2013-11-12,54,44,31,43,32,19,84,65,48,30.48,30.00,20,2,20,0.00
2013-11-13,47,37,29,27,23,18,74,58,36,30.58,30.47,14,2,14,0.00
2013-11-14,62,44,29,35,28,20,87,58,24,30.48,30.30,12,1,12,0.00
2013-11-15,61,49,33,49,39,30,95,73,38,30.33,30.19,11,1,11,0.18
2013-11-16,56,52,50,54,51,48,96,95,91,30.30,30.22,5,1,5,0.09
2013-11-17,62,57,54,60,56,53,97,96,95,30.24,29.81,13,1,14,0.07
2013-11-18,67,59,49,60,44,31,96,59,33,30.00,29.77,27,2,27,0.15
2013-11-19,53,46,39,37,32,30,80,60,45,30.36,29.99,15,2,15,0.00
2013-11-20,48,42,35,34,31,28,79,66,53,30.52,30.35,16,4,16,0.00
2013-11-21,50,46,41,44,40,31,84,79,69,30.56,30.42,6,1,7,0.00
2013-11-22,69,57,48,59,52,44,92,82,70,30.42,30.06,16,2,17,0.00
2013-11-23,58,50,36,55,37,20,92,62,36,30.26,30.06,22,2,23,0.00
2013-11-24,36,30,25,21,14,10,63,50,35,30.58,30.26,24,3,28,0.00
2013-11-25,37,33,23,22,17,12,72,52,42,30.60,30.40,12,2,13,0.00
2013-11-26,43,36,33,42,34,17,96,92,46,30.40,29.63,10,1,10,2.74
2013-11-27,45,38,29,44,32,18,96,81,64,30.19,29.55,24,3,24,0.08
2013-11-28,42,33,26,29,23,17,90,68,45,30.49,30.19,15,1,16,0.00
2013-11-29,48,36,27,34,28,26,95,75,48,30.70,30.48,12,2,12,0.00
2013-11-30,42,34,28,30,27,23,94,76,60,30.72,30.41,11,1,11,0.00
2013-12-1,55,37,26,39,31,25,95,81,43,30.40,30.05,7,0,7,0.00
2013-12-2,52,42,31,44,37,30,96,85,65,30.05,29.86,3,0,6,0.00
2013-12-3,57,46,37,50,43,36,96,87,66,29.99,29.88,10,0,10,0.00
2013-12-4,60,53,44,55,50,43,95,90,79,30.09,29.98,11,1,11,0.00
2013-12-5,66,61,54,62,58,53,96,92,84,30.09,29.97,15,2,15,0.03
2013-12-6,74,66,49,66,62,47,95,87,71,30.08,29.86,21,5,21,0.90
2013-12-7,51,46,40,47,40,33,95,83,69,30.52,30.05,14,3,14,0.22
2013-12-8,40,33,31,33,31,29,95,90,76,30.54,30.31,13,3,13,0.08
2013-12-9,44,37,33,42,36,32,97,95,92,30.31,30.07,6,1,6,1.02
2013-12-10,45,39,34,43,34,24,97,84,65,30.31,29.97,20,2,20,0.58
2013-12-11,50,38,30,33,26,22,80,63,41,30.45,30.27,17,1,17,0.00
2013-12-12,41,35,29,26,19,12,75,51,38,30.45,30.30,15,2,16,0.00
2013-12-13,50,38,28,35,26,17,84,63,37,30.39,30.25,13,1,14,0.00
2013-12-14,40,38,36,36,34,30,96,87,70,30.31,29.79,12,2,12,0.40
2013-12-15,48,41,36,39,33,29,96,76,61,30.05,29.73,21,2,21,0.00
2013-12-16,49,41,35,39,34,29,94,76,61,30.16,30.04,17,1,17,0.00
2013-12-17,59,42,32,44,36,28,96,80,47,30.13,29.89,21,2,21,0.05
2013-12-18,47,39,31,30,27,23,91,65,40,30.29,30.03,19,2,19,0.00
2013-12-19,63,45,30,42,33,28,93,67,32,30.27,30.15,11,1,11,0.00
2013-12-20,61,49,37,45,40,31,91,71,49,30.20,30.06,19,1,19,0.00
2013-12-21,66,58,43,62,54,42,94,85,73,30.10,29.94,21,2,21,0.00
2013-12-22,70,63,57,66,60,55,96,90,74,30.06,29.91,20,3,20,0.51
2013-12-23,63,53,38,62,49,31,97,87,72,30.23,29.94,21,1,21,1.09
2013-12-24,43,35,25,31,24,13,80,65,50,30.52,30.22,21,2,21,0.00
2013-12-25,36,28,21,23,18,13,86,65,49,30.59,30.41,12,2,12,0.00
2013-12-26,51,35,25,34,26,22,93,73,42,30.42,30.26,17,1,17,0.00
2013-12-27,52,38,28,33,28,23,93,71,36,30.49,30.36,10,1,10,0.00
2013-12-28,57,41,28,41,33,26,95,76,38,30.42,30.18,11,1,11,0.08
2013-12-29,54,46,41,49,43,40,96,90,79,30.18,29.69,17,1,17,1.10
2013-12-30,48,42,38,42,35,31,93,74,67,30.17,29.91,18,1,18,0.00
2013-12-31,49,39,31,34,28,22,94,68,39,30.38,30.14,20,1,20,0.00
2014-1-1,48,36,28,34,29,26,95,78,42,30.42,30.14,14,2,14,0.00
2014-1-2,40,35,30,37,33,27,96,91,74,30.14,29.65,19,0,19,0.19